createdAt,value
2023-03-22T00:02:07.836Z,99209.78
2023-03-22T00:04:35.396Z,99209.63
2023-03-22T00:07:02.887Z,99210.25
2023-03-22T00:09:30.859Z,99213.28
2023-03-22T00:12:00.972Z,99213.31
2023-03-22T00:14:28.538Z,99201.75
2023-03-22T00:16:56.656Z,99214.16
2023-03-22T00:19:24.146Z,99217.97
2023-03-22T00:21:51.653Z,99222.44
2023-03-22T00:24:21.141Z,99214.66
2023-03-22T00:26:48.660Z,99216.06
2023-03-22T00:29:16.141Z,99205.72
2023-03-22T00:31:44.332Z,99205.63
2023-03-22T00:34:13.181Z,99204.41
2023-03-22T00:36:40.841Z,99201.94
2023-03-22T00:39:08.763Z,99200.09
2023-03-22T00:41:36.256Z,99208.06
2023-03-22T00:44:03.828Z,99203.19
2023-03-22T00:46:31.378Z,99204.50
2023-03-22T00:48:58.848Z,99206.84
2023-03-22T00:51:26.715Z,99205.16
2023-03-22T00:53:57.411Z,99201.13
2023-03-22T00:56:28.816Z,99201.19
2023-03-22T00:59:02.325Z,99195.63
2023-03-22T01:01:30.894Z,99193.50
2023-03-22T01:03:58.671Z,99199.50
2023-03-22T01:06:26.217Z,99198.88
2023-03-22T01:08:55.164Z,99195.94
2023-03-22T01:11:23.164Z,99194.00
2023-03-22T01:13:52.558Z,99201.25
2023-03-22T01:16:20.048Z,99202.38
2023-03-22T01:18:48.176Z,99212.16
2023-03-22T01:21:16.289Z,99214.75
2023-03-22T01:23:43.775Z,99203.44
2023-03-22T01:26:11.243Z,99203.09
2023-03-22T01:28:40.627Z,99200.44
2023-03-22T01:31:08.417Z,99207.97
2023-03-22T01:33:36.748Z,99205.38
2023-03-22T01:36:04.790Z,99199.22
2023-03-22T01:38:34.409Z,99198.06
2023-03-22T01:41:02.666Z,99195.44
2023-03-22T01:43:32.618Z,99183.88
2023-03-22T01:46:00.923Z,99195.34
2023-03-22T01:48:46.029Z,99191.56
2023-03-22T01:51:25.417Z,99197.03
2023-03-22T01:54:37.164Z,99201.91
2023-03-22T01:57:18.613Z,99206.25
2023-03-22T01:59:48.031Z,99205.91
2023-03-22T02:02:45.293Z,99208.72
2023-03-22T02:05:23.014Z,99200.00
2023-03-22T02:07:51.478Z,99204.88
2023-03-22T02:10:24.849Z,99204.78
2023-03-22T02:13:16.616Z,99210.56
2023-03-22T02:16:08.779Z,99207.66
2023-03-22T02:19:03.526Z,99209.28
2023-03-22T02:22:39.354Z,99208.59
2023-03-22T02:25:27.772Z,99210.63
2023-03-22T02:28:33.351Z,99210.16
2023-03-22T02:31:31.480Z,99213.78
2023-03-22T02:34:23.716Z,99217.97
2023-03-22T02:37:18.171Z,99228.34
2023-03-22T02:40:36.979Z,99229.84
2023-03-22T02:44:08.565Z,99226.53
2023-03-22T02:46:56.135Z,99231.22
2023-03-22T02:49:52.636Z,99230.13
2023-03-22T02:52:49.300Z,99226.09
2023-03-22T02:55:31.922Z,99221.66
2023-03-22T02:58:12.697Z,99221.63
2023-03-22T03:00:42.441Z,99226.56
2023-03-22T03:03:18.277Z,99215.59
2023-03-22T03:05:54.899Z,99222.53
2023-03-22T03:08:24.913Z,99231.03
2023-03-22T03:10:54.477Z,99236.44
2023-03-22T03:13:22.669Z,99228.44
2023-03-22T03:15:57.333Z,99234.41
2023-03-22T03:19:00.177Z,99229.78
2023-03-22T03:21:37.318Z,99234.41
2023-03-22T03:24:27.092Z,99234.72
2023-03-22T03:27:15.039Z,99231.00
2023-03-22T03:30:17.556Z,99235.78
2023-03-22T03:32:54.142Z,99236.84
2023-03-22T03:35:33.640Z,99244.72
2023-03-22T03:38:25.860Z,99247.22
2023-03-22T03:41:07.045Z,99247.38
2023-03-22T03:43:35.618Z,99242.28
2023-03-22T03:46:03.521Z,99249.84
2023-03-22T03:48:36.737Z,99249.06
2023-03-22T03:51:04.772Z,99244.25
2023-03-22T03:53:34.337Z,99251.06
2023-03-22T03:56:02.016Z,99243.50
2023-03-22T03:58:38.717Z,99248.91
2023-03-22T04:01:07.077Z,99259.56
2023-03-22T04:03:55.442Z,99262.03
2023-03-22T04:06:29.363Z,99261.41
2023-03-22T04:09:02.066Z,99260.97
2023-03-22T04:11:33.559Z,99257.41
2023-03-22T04:14:03.288Z,99266.22
2023-03-22T04:16:30.924Z,99266.22
2023-03-22T04:18:58.492Z,99260.50
2023-03-22T04:21:25.959Z,99269.91
2023-03-22T04:24:02.073Z,99272.06
2023-03-22T04:26:35.520Z,99271.75
2023-03-22T04:29:19.143Z,99275.75
2023-03-22T04:31:53.104Z,99274.69
2023-03-22T04:34:28.781Z,99286.56
2023-03-22T04:37:02.554Z,99273.88
2023-03-22T04:39:39.138Z,99267.41
2023-03-22T04:42:26.719Z,99274.50
2023-03-22T04:45:07.088Z,99267.22
2023-03-22T04:47:35.986Z,99266.34
2023-03-22T04:50:09.164Z,99272.06
2023-03-22T04:52:44.417Z,99259.88
2023-03-22T04:55:12.052Z,99263.91
2023-03-22T04:57:39.677Z,99261.44
2023-03-22T05:00:08.701Z,99265.47
2023-03-22T05:02:41.114Z,99264.69
2023-03-22T05:05:14.479Z,99275.44
2023-03-22T05:07:41.934Z,99274.09
2023-03-22T05:10:11.430Z,99287.03
2023-03-22T05:12:39.748Z,99294.09
2023-03-22T05:15:29.638Z,99292.41
2023-03-22T05:17:59.035Z,99297.34
2023-03-22T05:20:27.855Z,99296.75
2023-03-22T05:23:21.094Z,99296.91
2023-03-22T05:25:58.361Z,99303.09
2023-03-22T05:28:28.982Z,99311.56
2023-03-22T05:31:21.825Z,99308.22
2023-03-22T05:33:57.557Z,99309.94
2023-03-22T05:36:29.754Z,99314.91
2023-03-22T05:39:29.649Z,99305.03
2023-03-22T05:41:58.265Z,99306.13
2023-03-22T05:44:26.365Z,99314.94
2023-03-22T05:47:07.018Z,99325.38
2023-03-22T05:49:41.258Z,99346.28
2023-03-22T05:52:09.685Z,99348.19
2023-03-22T05:54:52.884Z,99344.22
2023-03-22T05:57:23.172Z,99352.88
2023-03-22T05:59:53.971Z,99356.72
2023-03-22T06:02:27.082Z,99364.44
2023-03-22T06:04:54.679Z,99373.38
2023-03-22T06:07:22.259Z,99376.16
2023-03-22T06:09:55.880Z,99381.88
2023-03-22T06:12:27.223Z,99387.72
2023-03-22T06:15:16.329Z,99392.06
2023-03-22T06:18:16.290Z,99388.50
2023-03-22T06:20:49.431Z,99383.88
2023-03-22T06:23:21.235Z,99382.03
2023-03-22T06:25:49.460Z,99385.50
2023-03-22T06:28:18.169Z,99374.31
2023-03-22T06:30:54.457Z,99379.78
2023-03-22T06:33:40.947Z,99382.63
2023-03-22T06:36:23.498Z,99386.03
2023-03-22T06:39:14.016Z,99376.00
2023-03-22T06:41:44.617Z,99382.94
2023-03-22T06:44:12.285Z,99387.94
2023-03-22T06:46:51.793Z,99394.16
2023-03-22T06:49:42.171Z,99390.75
2023-03-22T06:52:15.355Z,99382.16
2023-03-22T06:54:43.078Z,99381.41
2023-03-22T06:57:11.713Z,99385.88
2023-03-22T06:59:39.403Z,99394.97
2023-03-22T07:02:07.148Z,99401.34
2023-03-22T07:04:35.564Z,99413.06
2023-03-22T07:07:03.452Z,99419.09
2023-03-22T07:09:31.063Z,99427.88
2023-03-22T07:12:00.601Z,99424.81
2023-03-22T07:14:30.362Z,99420.91
2023-03-22T07:17:14.998Z,99421.06
2023-03-22T07:19:42.951Z,99427.69
2023-03-22T07:22:12.037Z,99430.31
2023-03-22T07:24:50.303Z,99426.47
2023-03-22T07:27:23.951Z,99426.31
2023-03-22T07:29:51.605Z,99431.03
2023-03-22T07:32:19.445Z,99431.94
2023-03-22T07:35:09.260Z,99437.47
2023-03-22T07:37:36.831Z,99437.22
2023-03-22T07:40:11.446Z,99432.13
2023-03-22T07:42:38.970Z,99432.56
2023-03-22T07:45:25.037Z,99448.41
2023-03-22T07:48:14.645Z,99456.06
2023-03-22T07:50:57.031Z,99466.22
2023-03-22T07:53:26.792Z,99466.97
2023-03-22T07:55:56.259Z,99456.72
2023-03-22T07:58:25.390Z,99462.94
2023-03-22T08:00:53.195Z,99470.28
2023-03-22T08:03:39.688Z,99463.91
2023-03-22T08:06:34.351Z,99469.53
2023-03-22T08:09:01.982Z,99457.06
2023-03-22T08:11:29.826Z,99459.56
2023-03-22T08:13:59.090Z,99450.53
2023-03-22T08:16:27.066Z,99449.97
2023-03-22T08:18:55.640Z,99442.84
2023-03-22T08:21:26.051Z,99438.44
2023-03-22T08:23:56.048Z,99433.47
2023-03-22T08:26:29.536Z,99436.78
2023-03-22T08:29:03.018Z,99430.28
2023-03-22T08:31:34.508Z,99434.25
2023-03-22T08:34:04.599Z,99433.19
2023-03-22T08:36:33.875Z,99458.81
2023-03-22T08:39:05.349Z,99469.00
2023-03-22T08:41:52.774Z,99469.38
2023-03-22T08:44:21.464Z,99464.16
2023-03-22T08:46:49.557Z,99459.97
2023-03-22T08:49:17.278Z,99453.94
2023-03-22T08:51:55.143Z,99454.91
2023-03-22T08:54:55.627Z,99453.66
2023-03-22T08:58:03.849Z,99459.38
2023-03-22T09:00:49.393Z,99469.94
2023-03-22T09:03:26.999Z,99464.41
2023-03-22T09:05:54.786Z,99460.25
2023-03-22T09:08:22.398Z,99462.44
2023-03-22T09:10:56.880Z,99461.38
2023-03-22T09:13:24.726Z,99465.69
2023-03-22T09:15:59.158Z,99462.34
2023-03-22T09:18:30.286Z,99461.66
2023-03-22T09:21:01.758Z,99455.44
2023-03-22T09:23:40.533Z,99455.97
2023-03-22T09:26:10.267Z,99458.53
2023-03-22T09:28:38.996Z,99451.66
2023-03-22T09:31:11.034Z,99448.25
2023-03-22T09:33:44.762Z,99456.81
2023-03-22T09:36:12.767Z,99453.28
2023-03-22T09:38:42.088Z,99448.28
2023-03-22T09:41:25.016Z,99450.19
2023-03-22T09:43:59.889Z,99448.00
2023-03-22T09:46:36.933Z,99446.88
2023-03-22T09:49:11.364Z,99456.78
2023-03-22T09:51:50.187Z,99463.66
2023-03-22T09:54:37.302Z,99457.78
2023-03-22T09:57:24.449Z,99468.66
2023-03-22T10:00:16.834Z,99466.91
2023-03-22T10:03:00.667Z,99469.97
2023-03-22T10:05:41.451Z,99477.13
2023-03-22T10:08:35.514Z,99466.69
2023-03-22T10:11:03.894Z,99462.69
2023-03-22T10:14:00.508Z,99459.94
2023-03-22T10:16:33.283Z,99454.56
2023-03-22T10:19:35.060Z,99461.38
2023-03-22T10:22:05.381Z,99454.41
2023-03-22T10:24:38.001Z,99463.06
2023-03-22T10:27:18.134Z,99450.28
2023-03-22T10:30:06.343Z,99459.09
2023-03-22T10:32:58.427Z,99456.91
2023-03-22T10:35:26.872Z,99451.53
2023-03-22T10:38:01.372Z,99451.69
2023-03-22T10:40:35.803Z,99462.94
2023-03-22T10:43:33.870Z,99449.31
2023-03-22T10:46:07.071Z,99451.50
2023-03-22T10:48:42.395Z,99445.88
2023-03-22T10:51:26.831Z,99445.28
2023-03-22T10:53:58.299Z,99448.16
2023-03-22T10:56:27.121Z,99444.97
2023-03-22T10:59:35.775Z,99436.84
2023-03-22T11:02:03.384Z,99445.00
2023-03-22T11:04:31.659Z,99441.88
2023-03-22T11:06:59.204Z,99434.28
2023-03-22T11:09:26.694Z,99434.56
2023-03-22T11:12:00.014Z,99433.56
2023-03-22T11:14:37.779Z,99431.44
2023-03-22T11:17:15.427Z,99425.22
2023-03-22T11:20:07.860Z,99429.41
2023-03-22T11:22:42.670Z,99425.81
2023-03-22T11:25:27.777Z,99416.88
2023-03-22T11:27:58.043Z,99417.59
2023-03-22T11:30:26.775Z,99410.81
2023-03-22T11:33:21.453Z,99412.50
2023-03-22T11:35:56.900Z,99408.63
2023-03-22T11:38:35.496Z,99409.72
2023-03-22T11:41:21.934Z,99420.47
2023-03-22T11:44:21.673Z,99417.31
2023-03-22T11:46:57.876Z,99414.94
2023-03-22T11:49:49.738Z,99408.94
2023-03-22T11:52:36.970Z,99412.88
2023-03-22T11:55:05.579Z,99402.72
2023-03-22T11:57:55.987Z,99400.69
2023-03-22T12:00:29.880Z,99411.13
2023-03-22T12:03:05.537Z,99412.69
2023-03-22T12:05:37.485Z,99418.91
2023-03-22T12:08:22.687Z,99415.25
2023-03-22T12:10:57.911Z,99417.00
2023-03-22T12:13:57.553Z,99414.50
2023-03-22T12:16:36.595Z,99415.03
2023-03-22T12:19:06.555Z,99419.53
2023-03-22T12:21:34.744Z,99421.53
2023-03-22T12:24:04.365Z,99416.69
2023-03-22T12:26:35.147Z,99414.28
2023-03-22T12:29:09.648Z,99413.06
2023-03-22T12:31:43.686Z,99407.78
2023-03-22T12:34:18.991Z,99414.50
2023-03-22T12:36:54.475Z,99409.66
2023-03-22T12:39:46.189Z,99416.13
2023-03-22T12:42:50.386Z,99424.47
2023-03-22T12:45:26.932Z,99434.06
2023-03-22T12:48:28.947Z,99436.56
2023-03-22T12:51:12.344Z,99437.09
2023-03-22T12:54:03.114Z,99428.44
2023-03-22T12:56:41.573Z,99423.59
2023-03-22T12:59:19.016Z,99421.19
2023-03-22T13:02:22.020Z,99426.53
2023-03-22T13:04:57.645Z,99417.19
2023-03-22T13:07:54.416Z,99423.81
2023-03-22T13:10:30.515Z,99426.66
2023-03-22T13:13:30.060Z,99422.28
2023-03-22T13:16:09.476Z,99423.59
2023-03-22T13:18:37.978Z,99414.16
2023-03-22T13:21:29.872Z,99413.72
2023-03-22T13:24:06.470Z,99411.72
2023-03-22T13:26:53.631Z,99406.88
2023-03-22T13:29:38.865Z,99410.94
2023-03-22T13:32:32.726Z,99414.91
2023-03-22T13:35:00.919Z,99415.69
2023-03-22T13:37:51.612Z,99415.91
2023-03-22T13:40:40.120Z,99414.47
2023-03-22T13:43:34.378Z,99409.97
2023-03-22T13:46:10.873Z,99402.75
2023-03-22T13:48:55.172Z,99405.38
2023-03-22T13:51:22.858Z,99406.88
2023-03-22T13:54:00.518Z,99414.91
2023-03-22T13:56:47.896Z,99409.31
2023-03-22T13:59:30.709Z,99407.47
2023-03-22T14:02:13.738Z,99405.28
2023-03-22T14:05:10.861Z,99402.72
2023-03-22T14:07:48.565Z,99402.94
2023-03-22T14:11:17.563Z,99406.16
2023-03-22T14:13:54.689Z,99403.94
2023-03-22T14:16:49.516Z,99407.91
2023-03-22T14:19:26.023Z,99413.31
